createdAt,value
2023-01-30T00:00:55.374Z,1006.02
2023-01-30T00:01:59.610Z,1005.93
2023-01-30T00:03:03.760Z,1005.75
2023-01-30T00:04:07.900Z,1005.87
2023-01-30T00:05:12.127Z,1005.68
2023-01-30T00:06:16.340Z,1005.63
2023-01-30T00:07:20.467Z,1005.57
2023-01-30T00:08:24.732Z,1005.66
2023-01-30T00:09:28.832Z,1005.62
2023-01-30T00:10:33.114Z,1005.65
2023-01-30T00:11:37.258Z,1005.69
2023-01-30T00:12:41.437Z,1005.71
2023-01-30T00:13:45.776Z,1005.73
2023-01-30T00:14:49.913Z,1005.74
2023-01-30T00:15:54.066Z,1005.77
2023-01-30T00:16:58.382Z,1005.88
2023-01-30T00:18:02.627Z,1005.94
2023-01-30T00:19:06.776Z,1005.99
2023-01-30T00:20:10.964Z,1005.99
2023-01-30T00:21:15.221Z,1005.90
2023-01-30T00:22:19.325Z,1005.87
2023-01-30T00:23:29.556Z,1005.88
2023-01-30T00:24:32.639Z,1005.88
2023-01-30T00:25:36.927Z,1005.89
2023-01-30T00:26:40.863Z,1005.86
2023-01-30T00:27:45.007Z,1005.90
2023-01-30T00:28:49.191Z,1005.92
2023-01-30T00:30:02.444Z,1005.90
2023-01-30T00:30:58.240Z,1005.91
2023-01-30T00:32:02.301Z,1005.90
2023-01-30T00:33:06.475Z,1005.82
2023-01-30T00:34:10.683Z,1005.79
2023-01-30T00:35:14.878Z,1005.77
2023-01-30T00:36:19.094Z,1005.74
2023-01-30T00:37:23.275Z,1005.75
2023-01-30T00:38:27.615Z,1005.72
2023-01-30T00:39:31.761Z,1005.81
2023-01-30T00:40:36.130Z,1005.62
2023-01-30T00:41:40.361Z,1005.54
2023-01-30T00:42:44.398Z,1005.47
2023-01-30T00:43:48.667Z,1005.50
2023-01-30T00:44:52.813Z,1005.46
2023-01-30T00:45:57.059Z,1005.40
2023-01-30T00:47:01.192Z,1005.30
2023-01-30T00:48:19.616Z,1005.22
2023-01-30T00:49:22.552Z,1005.14
2023-01-30T00:50:26.660Z,1005.04
2023-01-30T00:51:30.842Z,1004.97
2023-01-30T00:52:35.038Z,1004.92
2023-01-30T00:53:39.338Z,1004.89
2023-01-30T00:54:43.499Z,1004.79
2023-01-30T00:55:47.790Z,1004.78
2023-01-30T00:56:52.033Z,1004.79
2023-01-30T00:57:56.179Z,1004.77
2023-01-30T00:59:01.246Z,1004.77
2023-01-30T01:00:05.250Z,1004.72
2023-01-30T01:01:09.467Z,1004.62
2023-01-30T01:02:13.730Z,1004.55
2023-01-30T01:03:17.922Z,1004.64
2023-01-30T01:04:22.087Z,1004.59
2023-01-30T01:05:26.273Z,1004.49
2023-01-30T01:06:30.485Z,1004.45
2023-01-30T01:07:34.720Z,1004.49
2023-01-30T01:08:39.033Z,1004.43
2023-01-30T01:09:43.247Z,1004.36
2023-01-30T01:10:47.518Z,1004.40
2023-01-30T01:11:51.723Z,1004.31
2023-01-30T01:12:56.048Z,1004.36
2023-01-30T01:14:00.287Z,1004.31
2023-01-30T01:15:04.428Z,1004.23
2023-01-30T01:16:08.675Z,1004.17
2023-01-30T01:17:12.760Z,1004.12
2023-01-30T01:18:17.008Z,1004.08
2023-01-30T01:19:21.301Z,1004.02
2023-01-30T01:20:25.451Z,1003.93
2023-01-30T01:21:29.680Z,1003.88
2023-01-30T01:22:34.021Z,1003.82
2023-01-30T01:23:38.148Z,1003.78
2023-01-30T01:24:42.375Z,1003.84
2023-01-30T01:25:46.535Z,1003.86
2023-01-30T01:26:50.911Z,1003.81
2023-01-30T01:27:55.051Z,1003.80
2023-01-30T01:28:59.197Z,1003.83
2023-01-30T01:30:03.439Z,1003.92
2023-01-30T01:31:07.639Z,1003.90
2023-01-30T01:32:11.865Z,1003.74
2023-01-30T01:33:16.019Z,1003.79
2023-01-30T01:34:20.216Z,1003.71
2023-01-30T01:35:24.319Z,1003.68
2023-01-30T01:36:52.265Z,1003.66
2023-01-30T01:37:32.811Z,1003.53
2023-01-30T01:38:37.011Z,1003.51
2023-01-30T01:39:41.196Z,1003.57
2023-01-30T01:40:45.406Z,1003.65
2023-01-30T01:41:49.660Z,1003.65
2023-01-30T01:42:53.831Z,1003.65
2023-01-30T01:43:57.949Z,1003.68
2023-01-30T01:45:02.204Z,1003.67
2023-01-30T01:46:12.472Z,1003.66
2023-01-30T01:47:15.111Z,1003.65
2023-01-30T01:48:19.208Z,1003.65
2023-01-30T01:49:23.615Z,1003.60
2023-01-30T01:50:27.614Z,1003.57
2023-01-30T01:51:32.093Z,1003.52
2023-01-30T01:52:36.228Z,1003.46
2023-01-30T01:53:40.547Z,1003.44
2023-01-30T01:54:44.687Z,1003.38
2023-01-30T01:55:48.973Z,1003.43
2023-01-30T01:56:53.151Z,1003.39
2023-01-30T01:57:57.329Z,1003.31
2023-01-30T01:59:01.600Z,1003.24
2023-01-30T02:00:05.774Z,1003.16
2023-01-30T02:01:10.129Z,1003.23
2023-01-30T02:02:14.254Z,1003.15
2023-01-30T02:03:18.424Z,1003.12
2023-01-30T02:04:22.621Z,1003.10
2023-01-30T02:05:26.827Z,1003.11
2023-01-30T02:06:31.122Z,1003.07
2023-01-30T02:07:35.258Z,1002.97
2023-01-30T02:08:39.571Z,1003.04
2023-01-30T02:09:43.810Z,1003.03
2023-01-30T02:10:48.106Z,1003.00
2023-01-30T02:11:52.265Z,1003.02
2023-01-30T02:12:59.495Z,1003.01
2023-01-30T02:14:02.720Z,1003.02
2023-01-30T02:15:06.910Z,1003.00
2023-01-30T02:16:11.099Z,1002.99
2023-01-30T02:17:15.366Z,1003.02
2023-01-30T02:18:19.547Z,1002.97
2023-01-30T02:19:23.634Z,1002.99
2023-01-30T02:20:27.887Z,1002.97
2023-01-30T02:21:31.951Z,1002.93
2023-01-30T02:22:36.298Z,1002.92
2023-01-30T02:23:40.522Z,1002.88
2023-01-30T02:24:44.686Z,1002.87
2023-01-30T02:25:48.867Z,1002.85
2023-01-30T02:26:53.093Z,1002.83
2023-01-30T02:27:57.297Z,1002.81
2023-01-30T02:29:01.574Z,1002.81
2023-01-30T02:30:05.748Z,1002.75
2023-01-30T02:31:10.014Z,1002.71
2023-01-30T02:32:14.022Z,1002.66
2023-01-30T02:33:18.307Z,1002.69
2023-01-30T02:34:22.477Z,1002.63
2023-01-30T02:35:26.677Z,1002.63
2023-01-30T02:36:30.862Z,1002.63
2023-01-30T02:37:35.149Z,1002.61
2023-01-30T02:38:39.305Z,1002.51
2023-01-30T02:39:43.371Z,1002.51
2023-01-30T02:40:47.654Z,1002.55
2023-01-30T02:41:51.811Z,1002.50
2023-01-30T02:42:56.003Z,1002.42
2023-01-30T02:44:00.193Z,1002.40
2023-01-30T02:45:04.384Z,1002.42
2023-01-30T02:46:08.624Z,1002.41
2023-01-30T02:47:12.687Z,1002.38
2023-01-30T02:48:17.485Z,1002.33
2023-01-30T02:49:21.430Z,1002.29
2023-01-30T02:50:25.760Z,1002.32
2023-01-30T02:51:29.913Z,1002.34
2023-01-30T02:52:37.074Z,1002.37
2023-01-30T02:53:54.397Z,1002.31
2023-01-30T02:54:58.106Z,1002.29
2023-01-30T02:56:01.827Z,1002.27
2023-01-30T02:57:05.897Z,1002.20
2023-01-30T02:58:10.182Z,1002.16
2023-01-30T02:59:14.483Z,1002.15
2023-01-30T03:00:18.705Z,1002.17
2023-01-30T03:01:22.898Z,1002.12
2023-01-30T03:02:27.046Z,1002.08
2023-01-30T03:03:31.269Z,1002.06
2023-01-30T03:04:35.442Z,1002.05
2023-01-30T03:05:39.695Z,1002.02
2023-01-30T03:06:44.800Z,1002.05
2023-01-30T03:07:48.603Z,1002.05
2023-01-30T03:08:52.862Z,1002.02
2023-01-30T03:09:57.129Z,1002.02
2023-01-30T03:11:01.260Z,1002.02
2023-01-30T03:12:05.464Z,1002.02
2023-01-30T03:13:09.808Z,1001.90
2023-01-30T03:14:13.897Z,1001.91
2023-01-30T03:15:18.449Z,1001.88
2023-01-30T03:16:22.389Z,1001.85
2023-01-30T03:17:26.487Z,1001.87
2023-01-30T03:18:30.762Z,1001.82
2023-01-30T03:19:35.088Z,1001.79
2023-01-30T03:20:39.133Z,1001.81
2023-01-30T03:21:44.347Z,1001.81
2023-01-30T03:22:48.136Z,1001.77
2023-01-30T03:23:52.334Z,1001.76
2023-01-30T03:24:56.474Z,1001.75
2023-01-30T03:26:00.757Z,1001.73
2023-01-30T03:27:04.922Z,1001.73
2023-01-30T03:28:09.111Z,1001.73
2023-01-30T03:29:13.408Z,1001.70
2023-01-30T03:30:17.559Z,1001.70
2023-01-30T03:31:21.782Z,1001.67
2023-01-30T03:32:25.904Z,1001.64
2023-01-30T03:33:30.174Z,1001.66
2023-01-30T03:34:34.307Z,1001.65
2023-01-30T03:35:39.429Z,1001.61
2023-01-30T03:36:43.294Z,1001.62
2023-01-30T03:37:47.424Z,1001.56
2023-01-30T03:38:51.539Z,1001.53
2023-01-30T03:39:55.760Z,1001.51
2023-01-30T03:40:59.958Z,1001.52
2023-01-30T03:42:04.159Z,1001.54
2023-01-30T03:43:08.346Z,1001.54
2023-01-30T03:44:12.468Z,1001.54
2023-01-30T03:45:17.027Z,1001.52
2023-01-30T03:46:21.070Z,1001.54
2023-01-30T03:47:25.191Z,1001.54
2023-01-30T03:48:29.392Z,1001.50
2023-01-30T03:49:33.575Z,1001.48
2023-01-30T03:50:37.742Z,1001.48
2023-01-30T03:51:41.940Z,1001.42
2023-01-30T03:52:46.179Z,1001.48
2023-01-30T03:53:50.365Z,1001.43
2023-01-30T03:54:54.583Z,1001.40
2023-01-30T03:55:58.778Z,1001.46
2023-01-30T03:57:03.058Z,1001.44
2023-01-30T03:58:07.193Z,1001.37
2023-01-30T03:59:11.379Z,1001.29
2023-01-30T04:00:15.747Z,1001.19
2023-01-30T04:01:19.868Z,1001.19
2023-01-30T04:02:24.045Z,1001.22
2023-01-30T04:03:28.222Z,1001.22
2023-01-30T04:04:32.371Z,1001.24
2023-01-30T04:05:36.627Z,1001.20
2023-01-30T04:06:40.923Z,1001.18
2023-01-30T04:07:45.128Z,1001.19
2023-01-30T04:08:49.404Z,1001.14
2023-01-30T04:09:53.591Z,1001.15
2023-01-30T04:10:57.834Z,1001.10
2023-01-30T04:12:02.037Z,1001.08
2023-01-30T04:13:06.264Z,1001.07
2023-01-30T04:14:10.338Z,1001.09
2023-01-30T04:15:14.468Z,1001.05
2023-01-30T04:16:18.780Z,1001.01
2023-01-30T04:17:22.941Z,1001.04
2023-01-30T04:18:27.162Z,1001.08
2023-01-30T04:19:31.375Z,1001.06
2023-01-30T04:20:35.579Z,1001.06
2023-01-30T04:21:39.756Z,1001.05
2023-01-30T04:22:44.091Z,1001.07
2023-01-30T04:23:48.276Z,1000.98
2023-01-30T04:24:52.497Z,1000.91
2023-01-30T04:25:56.585Z,1000.90
2023-01-30T04:27:00.777Z,1000.99
2023-01-30T04:28:05.026Z,1000.94
2023-01-30T04:29:09.304Z,1000.96
2023-01-30T04:30:13.357Z,1000.97
2023-01-30T04:31:17.617Z,1000.95
2023-01-30T04:32:21.886Z,1000.98
2023-01-30T04:33:26.046Z,1000.98
2023-01-30T04:34:31.134Z,1000.91
2023-01-30T04:35:34.974Z,1000.90
2023-01-30T04:36:39.141Z,1000.96
2023-01-30T04:37:43.286Z,1000.97
2023-01-30T04:38:47.497Z,1001.00
2023-01-30T04:39:51.779Z,1001.03
2023-01-30T04:40:55.961Z,1000.99
2023-01-30T04:42:00.065Z,1000.92
2023-01-30T04:43:04.334Z,1000.94
2023-01-30T04:44:08.582Z,1000.98
2023-01-30T04:45:12.732Z,1000.94
2023-01-30T04:46:16.977Z,1001.00
2023-01-30T04:47:21.277Z,1000.94
2023-01-30T04:48:25.403Z,1000.91
2023-01-30T04:49:29.644Z,1000.95
2023-01-30T04:50:34.860Z,1000.96
2023-01-30T04:51:38.692Z,1000.93
2023-01-30T04:52:42.844Z,1000.90
2023-01-30T04:53:46.922Z,1000.83
2023-01-30T04:54:51.247Z,1000.81
2023-01-30T04:55:55.384Z,1000.77
2023-01-30T04:56:59.600Z,1000.75
2023-01-30T04:58:03.794Z,1000.75
2023-01-30T04:59:08.100Z,1000.78
2023-01-30T05:00:12.272Z,1000.76
2023-01-30T05:01:16.476Z,1000.77
2023-01-30T05:02:22.967Z,1000.76
2023-01-30T05:03:24.873Z,1000.77
2023-01-30T05:04:29.164Z,1000.72
2023-01-30T05:05:33.181Z,1000.72
2023-01-30T05:06:37.504Z,1000.73
2023-01-30T05:07:41.645Z,1000.76
2023-01-30T05:08:46.951Z,1000.79
2023-01-30T05:09:50.302Z,1000.84
2023-01-30T05:10:54.442Z,1000.82
2023-01-30T05:11:58.671Z,1000.82
2023-01-30T05:13:02.867Z,1000.84
2023-01-30T05:14:07.056Z,1000.81
2023-01-30T05:15:11.335Z,1000.74
2023-01-30T05:16:15.534Z,1000.74
2023-01-30T05:17:20.779Z,1000.73
2023-01-30T05:18:24.455Z,1000.69
2023-01-30T05:19:28.565Z,1000.68
2023-01-30T05:20:32.822Z,1000.69
2023-01-30T05:21:37.037Z,1000.64
2023-01-30T05:22:41.342Z,1000.60
2023-01-30T05:25:12.682Z,1000.51
2023-01-30T05:26:16.671Z,1000.54
2023-01-30T05:27:20.835Z,1000.54
2023-01-30T05:28:25.040Z,1000.50
2023-01-30T05:29:29.231Z,1000.49
2023-01-30T05:30:33.518Z,1000.52
2023-01-30T05:31:37.701Z,1000.51
2023-01-30T05:32:41.871Z,1000.53
2023-01-30T05:33:46.052Z,1000.61
2023-01-30T05:34:50.166Z,1000.66
2023-01-30T05:35:54.437Z,1000.68
2023-01-30T05:36:58.618Z,1000.68
2023-01-30T05:38:02.874Z,1000.70
2023-01-30T05:39:07.076Z,1000.75
2023-01-30T05:40:11.291Z,1000.76
2023-01-30T05:41:15.583Z,1000.79
2023-01-30T05:42:19.837Z,1000.85
2023-01-30T05:43:24.022Z,1000.87
2023-01-30T05:44:28.215Z,1000.82
2023-01-30T05:45:32.371Z,1000.84
2023-01-30T05:46:36.572Z,1000.81
2023-01-30T05:47:40.732Z,1000.80
2023-01-30T05:48:44.986Z,1000.75
2023-01-30T05:49:49.154Z,1000.73
2023-01-30T05:50:53.313Z,1000.72
2023-01-30T05:51:57.567Z,1000.67
2023-01-30T05:53:01.748Z,1000.63
2023-01-30T05:54:05.870Z,1000.57
2023-01-30T05:55:24.258Z,1000.54
2023-01-30T05:56:27.230Z,1000.58
2023-01-30T05:57:31.334Z,1000.65
2023-01-30T05:58:35.525Z,1000.73
2023-01-30T05:59:39.739Z,1000.71
2023-01-30T06:00:43.954Z,1000.74
2023-01-30T06:01:48.229Z,1000.77
2023-01-30T06:02:52.423Z,1000.78
2023-01-30T06:03:57.623Z,1000.78
2023-01-30T06:05:01.229Z,1000.74
2023-01-30T06:06:05.500Z,1000.81
2023-01-30T06:07:09.745Z,1000.75
2023-01-30T06:08:13.981Z,1000.69
2023-01-30T06:09:18.235Z,1000.69
2023-01-30T06:10:22.394Z,1000.66
2023-01-30T06:11:26.590Z,1000.72
2023-01-30T06:12:30.842Z,1000.77
2023-01-30T06:13:35.086Z,1000.78
2023-01-30T06:14:39.215Z,1000.73
2023-01-30T06:15:43.480Z,1000.70
2023-01-30T06:16:47.681Z,1000.69
2023-01-30T06:17:52.005Z,1000.69
2023-01-30T06:18:56.239Z,1000.69
2023-01-30T06:20:00.508Z,1000.70
2023-01-30T06:21:04.666Z,1000.71
2023-01-30T06:22:11.859Z,1000.64
2023-01-30T06:23:15.272Z,1000.66
2023-01-30T06:24:19.224Z,1000.69
2023-01-30T06:25:26.579Z,1000.68
2023-01-30T06:26:29.813Z,1000.70
2023-01-30T06:27:47.990Z,1000.72
2023-01-30T06:28:50.903Z,1000.76
2023-01-30T06:29:55.090Z,1000.74
2023-01-30T06:30:59.427Z,1000.78
2023-01-30T06:32:03.565Z,1000.82
2023-01-30T06:33:07.603Z,1000.80
2023-01-30T06:34:11.864Z,1000.83
2023-01-30T06:35:16.594Z,1000.83
2023-01-30T06:36:20.259Z,1000.81
2023-01-30T06:37:24.530Z,1000.82
2023-01-30T06:38:28.630Z,1000.85
2023-01-30T06:39:33.002Z,1000.84
2023-01-30T06:40:37.077Z,1000.86
2023-01-30T06:41:41.349Z,1000.90
2023-01-30T06:42:45.478Z,1000.88
2023-01-30T06:43:49.764Z,1000.87
2023-01-30T06:44:53.987Z,1000.90
2023-01-30T06:46:01.301Z,1000.92
2023-01-30T06:47:04.479Z,1000.90
2023-01-30T06:48:08.652Z,1000.87
2023-01-30T06:49:12.824Z,1000.85
2023-01-30T06:50:17.022Z,1000.85
2023-01-30T06:51:21.138Z,1000.86
2023-01-30T06:52:25.454Z,1000.86
2023-01-30T06:53:29.678Z,1000.87
2023-01-30T06:54:33.882Z,1000.86
2023-01-30T06:55:38.098Z,1000.86
2023-01-30T06:56:42.206Z,1000.84
2023-01-30T06:57:46.460Z,1000.81
2023-01-30T06:58:50.713Z,1000.81
2023-01-30T06:59:54.884Z,1000.86
2023-01-30T07:00:59.134Z,1000.84
2023-01-30T07:02:03.430Z,1000.91
2023-01-30T07:03:07.575Z,1000.90
2023-01-30T07:04:11.866Z,1000.91
2023-01-30T07:05:16.305Z,1000.90
2023-01-30T07:06:20.120Z,1000.88
2023-01-30T07:07:24.379Z,1000.85
2023-01-30T07:08:28.574Z,1000.84
2023-01-30T07:09:32.789Z,1000.83
2023-01-30T07:10:37.007Z,1000.86
2023-01-30T07:11:41.258Z,1000.85
2023-01-30T07:12:45.422Z,1000.81
2023-01-30T07:13:49.532Z,1000.84
2023-01-30T07:14:53.796Z,1000.83
2023-01-30T07:15:57.947Z,1000.82
2023-01-30T07:17:02.207Z,1000.83
2023-01-30T07:18:06.345Z,1000.81
2023-01-30T07:19:10.619Z,1000.87
2023-01-30T07:20:14.800Z,1000.84
2023-01-30T07:21:19.062Z,1000.78
2023-01-30T07:22:23.274Z,1000.78
2023-01-30T07:23:27.490Z,1000.82
2023-01-30T07:24:31.683Z,1000.82
2023-01-30T07:25:35.889Z,1000.82
2023-01-30T07:26:40.051Z,1000.79
2023-01-30T07:27:44.223Z,1000.77
2023-01-30T07:28:48.340Z,1000.80
2023-01-30T07:29:53.355Z,1000.81
2023-01-30T07:30:56.924Z,1000.81
2023-01-30T07:32:04.024Z,1000.77
2023-01-30T07:33:07.376Z,1000.71
2023-01-30T07:34:11.438Z,1000.66
2023-01-30T07:35:15.685Z,1000.72
2023-01-30T07:36:19.753Z,1000.67
2023-01-30T07:37:24.131Z,1000.71
2023-01-30T07:38:28.394Z,1000.67
2023-01-30T07:39:32.438Z,1000.68
2023-01-30T07:40:36.675Z,1000.63
2023-01-30T07:41:40.911Z,1000.68
2023-01-30T07:42:45.125Z,1000.63
2023-01-30T07:43:49.348Z,1000.64
2023-01-30T07:44:53.549Z,1000.64
2023-01-30T07:45:57.764Z,1000.63
2023-01-30T07:47:02.129Z,1000.63
2023-01-30T07:48:06.152Z,1000.59
2023-01-30T07:49:10.329Z,1000.56
2023-01-30T07:50:14.590Z,1000.56
2023-01-30T07:51:18.780Z,1000.62
2023-01-30T07:52:23.025Z,1000.61
2023-01-30T07:53:27.241Z,1000.58
2023-01-30T07:54:31.503Z,1000.60
2023-01-30T07:55:35.721Z,1000.59
2023-01-30T07:56:39.935Z,1000.55
2023-01-30T07:57:44.166Z,1000.57
2023-01-30T07:58:48.332Z,1000.63
2023-01-30T07:59:52.574Z,1000.66
2023-01-30T08:00:56.871Z,1000.81
2023-01-30T08:02:01.087Z,1000.74
2023-01-30T08:03:05.239Z,1000.82
2023-01-30T08:04:09.493Z,1000.84
2023-01-30T08:05:13.652Z,1000.86
2023-01-30T08:06:17.854Z,1000.84
2023-01-30T08:07:22.047Z,1000.83
2023-01-30T08:08:26.249Z,1000.98
2023-01-30T08:09:30.454Z,1001.03
2023-01-30T08:10:34.549Z,1001.04
2023-01-30T08:11:38.828Z,1001.02
2023-01-30T08:12:43.041Z,1000.98
2023-01-30T08:13:47.160Z,1001.00
2023-01-30T08:14:51.537Z,1001.01
2023-01-30T08:15:55.589Z,1000.98
2023-01-30T08:16:59.861Z,1000.96
2023-01-30T08:18:04.010Z,1000.97
2023-01-30T08:19:08.265Z,1001.00
2023-01-30T08:20:12.424Z,1001.01
2023-01-30T08:21:16.775Z,1001.00
2023-01-30T08:22:21.050Z,1000.99
2023-01-30T08:23:25.199Z,1000.96
2023-01-30T08:24:29.391Z,1001.02
2023-01-30T08:25:33.659Z,1001.13
2023-01-30T08:26:37.793Z,1001.15
2023-01-30T08:27:42.002Z,1001.01
2023-01-30T08:28:46.201Z,1000.96
2023-01-30T08:29:50.409Z,1000.93
2023-01-30T08:30:54.866Z,1000.94
2023-01-30T08:31:58.949Z,1000.93
2023-01-30T08:33:03.143Z,1000.88
2023-01-30T08:34:07.285Z,1000.89
2023-01-30T08:35:11.513Z,1000.83
2023-01-30T08:36:15.675Z,1000.80
2023-01-30T08:37:19.959Z,1000.79
2023-01-30T08:38:38.236Z,1000.75
2023-01-30T08:39:41.103Z,1000.74
2023-01-30T08:40:45.343Z,1000.77
2023-01-30T08:41:49.545Z,1000.81
2023-01-30T08:42:53.617Z,1000.87
2023-01-30T08:43:57.883Z,1000.91
2023-01-30T08:45:02.119Z,1000.86
2023-01-30T08:46:07.283Z,1000.86
2023-01-30T08:47:11.927Z,1000.79
2023-01-30T08:48:15.753Z,1000.80
2023-01-30T08:49:20.081Z,1000.75
2023-01-30T08:50:24.270Z,1000.74
2023-01-30T08:51:28.437Z,1000.67
2023-01-30T08:52:32.534Z,1000.70
2023-01-30T08:53:36.839Z,1000.78
2023-01-30T08:54:42.579Z,1000.74
2023-01-30T08:55:47.614Z,1000.75
2023-01-30T08:56:53.075Z,1000.78
2023-01-30T08:57:59.647Z,1000.72
2023-01-30T08:59:02.919Z,1000.70
2023-01-30T09:00:07.245Z,1000.69
2023-01-30T09:01:11.488Z,1000.65
2023-01-30T09:02:15.618Z,1000.70
2023-01-30T09:03:19.755Z,1000.68
2023-01-30T09:04:23.868Z,1000.69
2023-01-30T09:05:28.119Z,1000.64
2023-01-30T09:06:32.334Z,1000.66
2023-01-30T09:07:36.544Z,1000.64
2023-01-30T09:08:40.776Z,1000.59
2023-01-30T09:09:45.006Z,1000.57
2023-01-30T09:10:49.183Z,1000.58
2023-01-30T09:11:53.422Z,1000.49
2023-01-30T09:13:11.731Z,1000.56
2023-01-30T09:14:14.725Z,1000.51
2023-01-30T09:15:18.846Z,1000.52
2023-01-30T09:16:23.325Z,1000.47
2023-01-30T09:17:27.297Z,1000.52
2023-01-30T09:18:31.549Z,1000.47
2023-01-30T09:19:35.850Z,1000.47
2023-01-30T09:20:39.990Z,1000.46
2023-01-30T09:21:44.189Z,1000.50
2023-01-30T09:22:48.357Z,1000.47
2023-01-30T09:23:52.560Z,1000.45
2023-01-30T09:24:56.775Z,1000.43
2023-01-30T09:26:00.954Z,1000.43
2023-01-30T09:27:05.241Z,1000.42
2023-01-30T09:28:09.390Z,1000.38
2023-01-30T09:29:13.624Z,1000.40
2023-01-30T09:30:18.239Z,1000.42
2023-01-30T09:31:22.186Z,1000.44
2023-01-30T09:32:26.362Z,1000.41
2023-01-30T09:33:30.464Z,1000.41
2023-01-30T09:34:34.714Z,1000.45
2023-01-30T09:35:38.903Z,1000.42
2023-01-30T09:36:43.069Z,1000.43
2023-01-30T09:37:47.325Z,1000.40
2023-01-30T09:38:51.578Z,1000.33
2023-01-30T09:39:55.775Z,1000.41
2023-01-30T09:40:59.962Z,1000.33
2023-01-30T09:42:04.097Z,1000.31
2023-01-30T09:43:08.417Z,1000.26
2023-01-30T09:44:12.627Z,1000.26
2023-01-30T09:45:16.831Z,1000.23
2023-01-30T09:46:21.136Z,1000.20
2023-01-30T09:47:25.288Z,1000.25
2023-01-30T09:48:29.593Z,1000.24
2023-01-30T09:49:33.744Z,1000.29
2023-01-30T09:50:37.976Z,1000.32
2023-01-30T09:51:42.169Z,1000.35
2023-01-30T09:52:46.469Z,1000.46
2023-01-30T09:53:50.624Z,1000.57
2023-01-30T09:54:54.934Z,1000.74
2023-01-30T09:55:59.059Z,1000.80
2023-01-30T09:57:03.364Z,1000.84
2023-01-30T09:58:07.448Z,1000.78
2023-01-30T09:59:11.693Z,1000.82
2023-01-30T10:00:16.107Z,1000.78
2023-01-30T10:01:21.527Z,1000.78
2023-01-30T10:02:24.118Z,1000.86
2023-01-30T10:03:28.499Z,1000.81
2023-01-30T10:04:35.627Z,1000.77
2023-01-30T10:05:38.892Z,1000.76
2023-01-30T10:06:42.911Z,1000.76
2023-01-30T10:07:47.289Z,1000.73
2023-01-30T10:08:51.371Z,1000.70
2023-01-30T10:09:55.608Z,1000.66
2023-01-30T10:11:09.645Z,1000.63
2023-01-30T10:12:03.955Z,1000.61
2023-01-30T10:13:08.263Z,1000.61
2023-01-30T10:14:12.321Z,1000.63
2023-01-30T10:15:16.576Z,1000.63
2023-01-30T10:16:20.785Z,1000.64
2023-01-30T10:17:24.824Z,1000.63
2023-01-30T10:18:29.075Z,1000.73
2023-01-30T10:19:35.823Z,1000.72
2023-01-30T10:20:37.618Z,1000.73
2023-01-30T10:21:55.829Z,1000.65
2023-01-30T10:22:58.776Z,1000.70
2023-01-30T10:24:02.840Z,1000.72
2023-01-30T10:25:07.085Z,1000.73
2023-01-30T10:26:11.368Z,1000.76
2023-01-30T10:27:15.512Z,1000.65
2023-01-30T10:28:19.654Z,1000.73
2023-01-30T10:29:23.821Z,1000.71
2023-01-30T10:30:28.119Z,1000.61
2023-01-30T10:31:32.318Z,1000.57
2023-01-30T10:32:36.970Z,1000.57
2023-01-30T10:33:54.781Z,1000.65
2023-01-30T10:34:57.770Z,1000.63
2023-01-30T10:36:01.949Z,1000.62
2023-01-30T10:37:06.092Z,1000.60
2023-01-30T10:38:10.309Z,1000.61
2023-01-30T10:39:14.503Z,1000.52
2023-01-30T10:40:19.033Z,1000.42
2023-01-30T10:41:22.815Z,1000.43
2023-01-30T10:42:27.108Z,1000.43
2023-01-30T10:43:31.354Z,1000.45
2023-01-30T10:44:35.410Z,1000.46
2023-01-30T10:45:39.731Z,1000.45
2023-01-30T10:46:43.973Z,1000.44
2023-01-30T10:47:48.303Z,1000.40
2023-01-30T10:48:52.301Z,1000.43
2023-01-30T10:49:56.533Z,1000.43
2023-01-30T10:51:00.792Z,1000.34
2023-01-30T10:52:05.088Z,1000.29
2023-01-30T10:53:09.198Z,1000.23
2023-01-30T10:54:13.436Z,1000.22
2023-01-30T10:55:22.129Z,1000.23
2023-01-30T10:56:21.736Z,1000.24
2023-01-30T10:57:25.975Z,1000.20
2023-01-30T10:58:30.183Z,1000.19
2023-01-30T10:59:34.330Z,1000.16
2023-01-30T11:00:38.574Z,1000.07
2023-01-30T11:01:42.941Z,999.97
2023-01-30T11:02:47.034Z,1000.04
2023-01-30T11:03:51.167Z,1000.04
2023-01-30T11:04:55.476Z,1000.07
2023-01-30T11:05:59.722Z,1000.08
2023-01-30T11:07:09.880Z,1000.03
2023-01-30T11:08:12.635Z,1000.05
2023-01-30T11:09:16.969Z,999.99
2023-01-30T11:10:21.037Z,1000.03
2023-01-30T11:11:25.207Z,1000.02
2023-01-30T11:12:32.468Z,999.94
2023-01-30T11:13:35.716Z,999.98
2023-01-30T11:14:41.940Z,999.92
2023-01-30T11:15:44.206Z,999.88
2023-01-30T11:16:48.364Z,999.84
2023-01-30T11:17:52.588Z,999.82
2023-01-30T11:19:26.672Z,999.81
2023-01-30T11:20:00.999Z,999.79
2023-01-30T11:21:05.372Z,999.78
2023-01-30T11:22:09.391Z,999.75
2023-01-30T11:23:13.667Z,999.73
2023-01-30T11:24:17.897Z,999.70
2023-01-30T11:25:22.260Z,999.62
2023-01-30T11:26:37.748Z,999.62
2023-01-30T11:27:32.714Z,999.59
2023-01-30T11:28:36.876Z,999.57
2023-01-30T11:29:41.142Z,999.57
2023-01-30T11:30:45.366Z,999.54
2023-01-30T11:31:49.758Z,999.53
2023-01-30T11:32:53.830Z,999.41
2023-01-30T11:33:58.079Z,999.32
2023-01-30T11:35:02.298Z,999.40
2023-01-30T11:36:06.485Z,999.32
2023-01-30T11:37:10.735Z,999.35
2023-01-30T11:38:14.953Z,999.34
2023-01-30T11:39:19.243Z,999.37
2023-01-30T11:40:23.536Z,999.32
2023-01-30T11:41:27.792Z,999.24
2023-01-30T11:42:32.280Z,999.22
2023-01-30T11:43:37.692Z,999.25
2023-01-30T11:44:41.513Z,999.27
2023-01-30T11:45:45.784Z,999.30
2023-01-30T11:46:49.880Z,999.32
2023-01-30T11:47:57.542Z,999.31
2023-01-30T11:49:06.015Z,999.28
2023-01-30T11:50:03.600Z,999.27
2023-01-30T11:51:06.905Z,999.24
2023-01-30T11:52:11.077Z,999.30
2023-01-30T11:53:15.415Z,999.26
2023-01-30T11:54:19.702Z,999.20
2023-01-30T11:55:24.034Z,999.28
2023-01-30T11:56:28.312Z,999.25
2023-01-30T11:57:32.543Z,999.27
2023-01-30T11:58:36.668Z,999.27
2023-01-30T11:59:40.884Z,999.16
2023-01-30T12:00:45.217Z,999.14
2023-01-30T12:01:49.446Z,999.18
2023-01-30T12:02:53.778Z,999.15
2023-01-30T12:03:57.903Z,999.14
2023-01-30T12:05:02.182Z,999.17
2023-01-30T12:06:06.343Z,999.18
2023-01-30T12:07:10.681Z,999.17
2023-01-30T12:08:14.852Z,999.19
2023-01-30T12:09:19.177Z,999.19
2023-01-30T12:10:23.416Z,999.19
2023-01-30T12:11:27.632Z,999.21
2023-01-30T12:12:32.082Z,999.23
2023-01-30T12:13:36.345Z,999.34
2023-01-30T12:14:40.631Z,999.34
2023-01-30T12:15:44.878Z,999.37
2023-01-30T12:16:49.189Z,999.34
2023-01-30T12:17:53.376Z,999.33
2023-01-30T12:18:57.687Z,999.38
2023-01-30T12:20:01.905Z,999.39
2023-01-30T12:21:06.138Z,999.32
2023-01-30T12:22:10.466Z,999.33
2023-01-30T12:23:14.764Z,999.32
2023-01-30T12:24:18.947Z,999.26
2023-01-30T12:25:23.158Z,999.29
2023-01-30T12:26:27.477Z,999.31
2023-01-30T12:27:31.699Z,999.31
2023-01-30T12:28:36.812Z,999.26
2023-01-30T12:29:41.041Z,999.32
2023-01-30T12:30:44.855Z,999.29
2023-01-30T12:31:49.123Z,999.32
2023-01-30T12:32:53.405Z,999.33
2023-01-30T12:33:57.594Z,999.37
2023-01-30T12:35:01.903Z,999.39
2023-01-30T12:36:06.059Z,999.37
2023-01-30T12:37:10.257Z,999.36
2023-01-30T12:38:14.493Z,999.27
2023-01-30T12:39:18.670Z,999.31
2023-01-30T12:40:22.930Z,999.33
2023-01-30T12:41:27.232Z,999.31
2023-01-30T12:42:31.384Z,999.28
2023-01-30T12:43:41.755Z,999.28
2023-01-30T12:44:44.630Z,999.22
2023-01-30T12:45:48.857Z,999.23
2023-01-30T12:46:52.959Z,999.30
2023-01-30T12:47:57.183Z,999.31
2023-01-30T12:49:10.853Z,999.31
2023-01-30T12:50:05.775Z,999.37
2023-01-30T12:51:10.097Z,999.38
2023-01-30T12:52:14.341Z,999.43
2023-01-30T12:53:18.608Z,999.39
2023-01-30T12:54:22.860Z,999.42
2023-01-30T12:55:27.130Z,999.46
2023-01-30T12:56:31.452Z,999.49
2023-01-30T12:57:41.646Z,999.50
2023-01-30T12:58:44.504Z,999.49
2023-01-30T12:59:48.754Z,999.54
2023-01-30T13:00:52.875Z,999.60
2023-01-30T13:01:57.109Z,999.59
2023-01-30T13:03:01.415Z,999.57
2023-01-30T13:04:05.426Z,999.65
2023-01-30T13:05:09.687Z,999.66